ANA06 OMAA-RJTT
Flight info
| Callsign | ANA06 |
|---|---|
| Flight time | N/A |
| Altitude | 41000 |
| Route | KANIP N318 GEVED N881 RASKI L639 BPL A791 CEA B465 CTG A599 LINSO/K0926S1250 A599 SGM A581 WHA R343 PK W116 JTN G327 LAMEN/N0500F410 A593 SADLI Y590 BEDAR Y591 FUE Y23 KASTE Y81 ISEBI Y43 MENUR Y21 AKSEL |
| Aircraft | A388/J-SADE2E3FGHIJ3J4J5M1RWXY/LB1D1 |
Departure
| Time | 2026-05-04 16:08 |
|---|---|
| Airport | Zayed International Airport (OMAA) |
Arrival
| Time | N/A |
|---|---|
| Airport | Tokyo Haneda International Airport (RJTT) |
| Time | Latitude | Longitude | Altitude | Speed | Heading |
|---|---|---|---|---|---|
| 2026-05-04 15:30 | 24.44983 | 54.64730 | 86 ft | 0 kts | 26° |
| 2026-05-04 15:51 | 24.44978 | 54.64727 | 80 ft | 4 kts | 26° |
| 2026-05-04 15:51 | 24.44954 | 54.64714 | 82 ft | 4 kts | 26° |
| 2026-05-04 15:51 | 24.44930 | 54.64701 | 85 ft | 4 kts | 26° |
| 2026-05-04 15:52 | 24.44908 | 54.64691 | 85 ft | 4 kts | 2° |
| 2026-05-04 15:52 | 24.44887 | 54.64700 | 85 ft | 4 kts | 306° |
| 2026-05-04 15:52 | 24.44874 | 54.64724 | 85 ft | 2 kts | 300° |
| 2026-05-04 15:52 | 24.44873 | 54.64726 | 85 ft | 0 kts | 300° |
| 2026-05-04 15:56 | 24.44879 | 54.64715 | 85 ft | 3 kts | 300° |
| 2026-05-04 15:56 | 24.44893 | 54.64687 | 85 ft | 5 kts | 297° |
| 2026-05-04 15:56 | 24.44907 | 54.64648 | 82 ft | 5 kts | 276° |
| 2026-05-04 15:56 | 24.44899 | 54.64613 | 86 ft | 5 kts | 234° |
| 2026-05-04 15:57 | 24.44871 | 54.64592 | 86 ft | 5 kts | 191° |
| 2026-05-04 15:57 | 24.44827 | 54.64598 | 85 ft | 8 kts | 163° |
| 2026-05-04 15:57 | 24.44769 | 54.64623 | 86 ft | 10 kts | 151° |
| 2026-05-04 15:57 | 24.44707 | 54.64677 | 84 ft | 13 kts | 132° |
| 2026-05-04 15:58 | 24.44647 | 54.64759 | 84 ft | 15 kts | 128° |
| 2026-05-04 15:58 | 24.44577 | 54.64856 | 85 ft | 17 kts | 128° |
| 2026-05-04 15:58 | 24.44501 | 54.64963 | 87 ft | 19 kts | 128° |
| 2026-05-04 15:58 | 24.44418 | 54.65074 | 86 ft | 15 kts | 152° |
| 2026-05-04 15:59 | 24.44328 | 54.65056 | 83 ft | 14 kts | 212° |
| 2026-05-04 15:59 | 24.44252 | 54.64993 | 85 ft | 14 kts | 219° |
| 2026-05-04 15:59 | 24.44173 | 54.64924 | 86 ft | 15 kts | 218° |
| 2026-05-04 15:59 | 24.44092 | 54.64855 | 85 ft | 15 kts | 217° |
| 2026-05-04 16:00 | 24.44008 | 54.64786 | 85 ft | 15 kts | 217° |
| 2026-05-04 16:00 | 24.43921 | 54.64741 | 86 ft | 12 kts | 160° |
| 2026-05-04 16:00 | 24.43856 | 54.64811 | 85 ft | 15 kts | 128° |
| 2026-05-04 16:00 | 24.43789 | 54.64906 | 84 ft | 17 kts | 127° |
| 2026-05-04 16:01 | 24.43712 | 54.65014 | 85 ft | 19 kts | 128° |
| 2026-05-04 16:01 | 24.43632 | 54.65126 | 86 ft | 20 kts | 128° |
| 2026-05-04 16:01 | 24.43546 | 54.65248 | 86 ft | 21 kts | 128° |
| 2026-05-04 16:01 | 24.43454 | 54.65378 | 85 ft | 22 kts | 128° |
| 2026-05-04 16:02 | 24.43358 | 54.65514 | 87 ft | 23 kts | 129° |
| 2026-05-04 16:02 | 24.43257 | 54.65651 | 85 ft | 24 kts | 129° |
| 2026-05-04 16:02 | 24.43053 | 54.65942 | 85 ft | 25 kts | 127° |
| 2026-05-04 16:03 | 24.42947 | 54.66092 | 86 ft | 25 kts | 128° |
| 2026-05-04 16:03 | 24.42840 | 54.66242 | 86 ft | 25 kts | 128° |
| 2026-05-04 16:03 | 24.42734 | 54.66391 | 87 ft | 25 kts | 128° |
| 2026-05-04 16:03 | 24.42625 | 54.66544 | 87 ft | 25 kts | 128° |
| 2026-05-04 16:04 | 24.42520 | 54.66692 | 85 ft | 24 kts | 128° |
| 2026-05-04 16:04 | 24.42391 | 54.66860 | 86 ft | 6 kts | 168° |
| 2026-05-04 16:04 | 24.42345 | 54.66847 | 84 ft | 8 kts | 210° |
| 2026-05-04 16:05 | 24.42294 | 54.66808 | 84 ft | 10 kts | 219° |
| 2026-05-04 16:05 | 24.42235 | 54.66756 | 84 ft | 12 kts | 217° |
| 2026-05-04 16:05 | 24.42216 | 54.66652 | 85 ft | 0 kts | 307° |
| 2026-05-04 16:07 | 24.42217 | 54.66650 | 85 ft | 1 kts | 307° |
| 2026-05-04 16:07 | 24.43228 | 54.65213 | 88 ft | 159 kts | 307° |
| 2026-05-04 16:08 | 24.43954 | 54.64202 | 242 ft | 176 kts | 308° |
| 2026-05-04 16:08 | 24.46372 | 54.61133 | 1446 ft | 177 kts | 308° |
| 2026-05-04 16:09 | 24.47836 | 54.58833 | 2234 ft | 202 kts | 306° |
| 2026-05-04 16:09 | 24.49677 | 54.56109 | 2733 ft | 238 kts | 308° |
| 2026-05-04 16:10 | 24.51698 | 54.53266 | 3852 ft | 239 kts | 310° |
| 2026-05-04 16:11 | 24.54822 | 54.48874 | 5564 ft | 239 kts | 310° |
| 2026-05-04 16:11 | 24.55839 | 54.47433 | 6143 ft | 239 kts | 310° |
| 2026-05-04 16:12 | 24.58928 | 54.43113 | 7690 ft | 243 kts | 317° |
| 2026-05-04 16:12 | 24.63702 | 54.42623 | 8980 ft | 262 kts | 26° |
| 2026-05-04 16:13 | 24.66807 | 54.44756 | 9012 ft | 262 kts | 26° |
| 2026-05-04 16:13 | 24.69912 | 54.46843 | 9011 ft | 261 kts | 26° |
| 2026-05-04 16:14 | 24.72581 | 54.49575 | 9054 ft | 288 kts | 62° |
| 2026-05-04 16:14 | 24.72528 | 54.54155 | 9751 ft | 321 kts | 113° |
| 2026-05-04 16:15 | 24.67922 | 54.59863 | 10534 ft | 354 kts | 131° |
| 2026-05-04 16:16 | 24.64733 | 54.64173 | 10965 ft | 373 kts | 126° |
| 2026-05-04 16:16 | 24.60130 | 54.71092 | 12518 ft | 376 kts | 125° |
| 2026-05-04 16:17 | 24.57050 | 54.75742 | 13564 ft | 378 kts | 125° |
| 2026-05-04 16:18 | 24.52347 | 54.82797 | 14849 ft | 384 kts | 124° |
| 2026-05-04 16:18 | 24.50621 | 54.85038 | 15279 ft | 385 kts | 128° |
| 2026-05-04 16:19 | 24.45959 | 54.92300 | 16517 ft | 393 kts | 124° |
| 2026-05-04 16:19 | 24.42855 | 54.97057 | 17335 ft | 398 kts | 126° |
| 2026-05-04 16:20 | 24.37938 | 55.04427 | 18490 ft | 405 kts | 126° |
| 2026-05-04 16:20 | 24.34615 | 55.09393 | 19186 ft | 409 kts | 126° |
| 2026-05-04 16:21 | 24.29522 | 55.16999 | 20183 ft | 416 kts | 127° |
| 2026-05-04 16:22 | 24.26073 | 55.22144 | 20835 ft | 421 kts | 127° |
| 2026-05-04 16:22 | 24.20855 | 55.29915 | 21757 ft | 428 kts | 127° |
| 2026-05-04 16:23 | 24.16270 | 55.38347 | 22677 ft | 436 kts | 113° |
| 2026-05-04 16:24 | 24.11563 | 55.50659 | 23766 ft | 445 kts | 114° |
| 2026-05-04 16:25 | 24.09162 | 55.56879 | 24232 ft | 450 kts | 114° |
| 2026-05-04 16:26 | 24.03868 | 55.69441 | 25176 ft | 458 kts | 119° |
| 2026-05-04 16:26 | 23.99439 | 55.78733 | 25917 ft | 465 kts | 119° |
| 2026-05-04 16:27 | 23.96428 | 55.85049 | 26415 ft | 471 kts | 119° |
| 2026-05-04 16:28 | 23.91847 | 55.94634 | 27214 ft | 478 kts | 119° |
| 2026-05-04 16:28 | 23.87184 | 56.04373 | 28059 ft | 486 kts | 119° |